createdAt,value
2023-04-15T00:06:17.553Z,3.80
2023-04-15T00:17:17.427Z,4.90
2023-04-15T00:28:17.311Z,4.50
2023-04-15T00:39:17.178Z,5.00
2023-04-15T00:50:17.053Z,5.50
2023-04-15T01:01:16.941Z,5.60
2023-04-15T01:12:16.834Z,7.00
2023-04-15T01:23:16.701Z,6.40
2023-04-15T01:34:16.566Z,5.60
2023-04-15T01:45:16.451Z,4.90
2023-04-15T01:56:16.964Z,4.40
2023-04-15T02:07:16.189Z,4.60
2023-04-15T02:18:16.087Z,6.60
2023-04-15T02:29:15.977Z,4.80
2023-04-15T02:40:15.807Z,4.20
2023-04-15T02:51:15.699Z,3.90
2023-04-15T03:02:15.612Z,4.10
2023-04-15T03:13:15.431Z,3.90
2023-04-15T03:24:15.324Z,4.90
2023-04-15T03:35:15.190Z,5.50
2023-04-15T03:46:15.113Z,4.60
2023-04-15T03:57:14.933Z,4.30
2023-04-15T04:08:14.821Z,4.00
2023-04-15T04:19:14.688Z,4.90
2023-04-15T04:30:14.686Z,4.00
2023-04-15T04:41:14.450Z,3.90
2023-04-15T04:52:14.322Z,4.90
2023-04-15T05:03:14.398Z,6.40
2023-04-15T05:14:14.086Z,5.80
2023-04-15T05:25:13.997Z,6.00
2023-04-15T05:36:13.843Z,5.50
2023-04-15T05:47:13.698Z,4.70
2023-04-15T05:58:13.600Z,5.10
2023-04-15T06:09:13.473Z,5.20
2023-04-15T06:20:13.353Z,5.40
2023-04-15T06:31:13.237Z,6.10
2023-04-15T06:42:13.105Z,6.30
2023-04-15T06:53:12.949Z,5.10
2023-04-15T07:04:12.852Z,5.40
2023-04-15T07:15:12.706Z,5.80
2023-04-15T07:26:12.584Z,7.00
2023-04-15T07:37:12.471Z,7.30
2023-04-15T07:48:12.334Z,7.00
2023-04-15T07:59:12.199Z,5.80
2023-04-15T08:10:12.106Z,7.00
2023-04-15T08:21:11.964Z,6.30
2023-04-15T08:32:11.847Z,6.50
2023-04-15T08:43:11.701Z,6.70
2023-04-15T08:54:11.573Z,6.40
2023-04-15T09:05:11.464Z,6.40
2023-04-15T09:16:11.374Z,4.90
2023-04-15T09:27:11.262Z,3.80
2023-04-15T09:38:11.091Z,3.10
2023-04-15T09:49:10.966Z,3.30
2023-04-15T10:00:10.832Z,4.30
2023-04-15T10:11:10.741Z,4.80
2023-04-15T10:22:10.585Z,6.40
2023-04-15T10:33:10.464Z,5.30
2023-04-15T10:44:10.328Z,4.50
2023-04-15T10:55:10.236Z,4.10
2023-04-15T11:06:10.106Z,3.40
2023-04-15T11:17:09.965Z,2.50
2023-04-15T11:28:09.837Z,2.80
2023-04-15T11:39:09.705Z,3.30
2023-04-15T11:50:09.591Z,4.10
2023-04-15T12:01:09.451Z,2.80
2023-04-15T12:12:09.332Z,3.20
2023-04-15T12:23:09.213Z,2.50
2023-04-15T12:34:09.132Z,2.50
2023-04-15T12:45:09.001Z,1.60
2023-04-15T12:56:08.832Z,1.20
2023-04-15T13:07:08.725Z,0.90
2023-04-15T13:18:08.607Z,1.10
2023-04-15T13:29:08.461Z,1.50
2023-04-15T13:40:08.362Z,1.10
2023-04-15T13:51:08.215Z,1.20
2023-04-15T14:02:08.197Z,1.30
2023-04-15T14:13:07.952Z,1.40
2023-04-15T14:24:07.873Z,2.20
2023-04-15T14:35:07.729Z,2.20
2023-04-15T14:46:07.616Z,1.40
2023-04-15T14:57:07.488Z,1.40
2023-04-15T15:08:07.323Z,1.50
2023-04-15T15:19:07.204Z,1.70
2023-04-15T15:30:07.117Z,1.30
2023-04-15T15:41:06.981Z,1.10
2023-04-15T15:52:06.836Z,1.30
2023-04-15T16:03:07.937Z,2.00
2023-04-15T16:14:06.586Z,2.20
2023-04-15T16:25:06.465Z,2.60
2023-04-15T16:36:06.345Z,2.20
2023-04-15T16:47:06.205Z,1.70
2023-04-15T16:58:08.361Z,1.90
2023-04-15T17:09:06.101Z,3.30
2023-04-15T17:20:05.826Z,3.60
2023-04-15T17:31:05.749Z,3.00
2023-04-15T17:42:05.585Z,3.00
2023-04-15T17:53:05.453Z,4.00
2023-04-15T18:04:05.838Z,2.50
2023-04-15T18:15:05.203Z,3.70
2023-04-15T18:26:05.076Z,2.30
2023-04-15T18:37:04.966Z,2.90
2023-04-15T18:48:04.852Z,4.90
2023-04-15T18:59:09.240Z,4.20
2023-04-15T19:10:04.625Z,4.90
2023-04-15T19:21:04.457Z,5.10
2023-04-15T19:32:04.348Z,5.00
2023-04-15T19:43:04.209Z,4.30
2023-04-15T19:54:04.089Z,5.80
2023-04-15T20:05:03.962Z,5.70
2023-04-15T20:16:03.900Z,6.30
2023-04-15T20:27:03.726Z,5.80
2023-04-15T20:38:03.593Z,5.50
2023-04-15T20:49:03.773Z,6.00
2023-04-15T21:00:03.338Z,5.70
2023-04-15T21:11:03.209Z,5.90
2023-04-15T21:22:03.107Z,4.40
2023-04-15T21:33:03.005Z,4.80
2023-04-15T21:44:02.858Z,5.60
2023-04-15T21:55:02.710Z,4.80
2023-04-15T22:06:02.588Z,4.70
2023-04-15T22:17:02.628Z,5.30
2023-04-15T22:28:02.350Z,5.70
2023-04-15T22:39:02.256Z,4.60
2023-04-15T22:50:02.116Z,5.60
2023-04-15T23:01:01.967Z,5.80
2023-04-15T23:12:01.843Z,5.10
2023-04-15T23:23:01.748Z,4.20
2023-04-15T23:34:01.584Z,4.50
2023-04-15T23:45:01.510Z,6.00
2023-04-15T23:56:01.346Z,6.50
